PSLKS UBBB-OAKB
Flight info
| Callsign | PSLKS |
|---|---|
| Flight time | N/A |
| Altitude | 41000 |
| Route | NAMAS N41 DUKAN B449 DOLOS B475 DAVET P173 GUNKO DCT JESOV DCT WEBRO |
| Aircraft | B737/M-SDE2E3FGHIRWXY/LB1 |
Departure
| Time | 2026-05-07 15:04 |
|---|---|
| Airport | Heydar Aliyev International Airport (UBBB) |
Arrival
| Time | N/A |
|---|---|
| Airport | Kabul International Airport (OAKB) |
| Time | Latitude | Longitude | Altitude | Speed | Heading |
|---|---|---|---|---|---|
| 2026-05-07 14:56 | 40.46839 | 50.05200 | -3 ft | 0 kts | 269° |
| 2026-05-07 14:57 | 40.46839 | 50.05172 | -3 ft | 7 kts | 269° |
| 2026-05-07 14:58 | 40.46839 | 50.05094 | -3 ft | 9 kts | 271° |
| 2026-05-07 14:58 | 40.46860 | 50.05043 | -3 ft | 7 kts | 334° |
| 2026-05-07 14:58 | 40.46909 | 50.05012 | -2 ft | 8 kts | 314° |
| 2026-05-07 14:58 | 40.46921 | 50.04934 | -2 ft | 9 kts | 270° |
| 2026-05-07 14:59 | 40.46920 | 50.04841 | -2 ft | 11 kts | 269° |
| 2026-05-07 14:59 | 40.46916 | 50.04734 | -2 ft | 13 kts | 266° |
| 2026-05-07 14:59 | 40.46911 | 50.04611 | -1 ft | 14 kts | 268° |
| 2026-05-07 14:59 | 40.46908 | 50.04474 | -1 ft | 16 kts | 268° |
| 2026-05-07 15:00 | 40.46896 | 50.04326 | -1 ft | 16 kts | 259° |
| 2026-05-07 15:00 | 40.46871 | 50.04183 | -1 ft | 16 kts | 255° |
| 2026-05-07 15:00 | 40.46854 | 50.04044 | -1 ft | 15 kts | 281° |
| 2026-05-07 15:00 | 40.46930 | 50.03964 | -1 ft | 15 kts | 340° |
| 2026-05-07 15:01 | 40.47023 | 50.03919 | -2 ft | 14 kts | 340° |
| 2026-05-07 15:01 | 40.47113 | 50.03878 | -2 ft | 13 kts | 341° |
| 2026-05-07 15:01 | 40.47198 | 50.03838 | -2 ft | 13 kts | 339° |
| 2026-05-07 15:01 | 40.47281 | 50.03798 | -3 ft | 13 kts | 339° |
| 2026-05-07 15:02 | 40.47361 | 50.03757 | -3 ft | 12 kts | 338° |
| 2026-05-07 15:02 | 40.47439 | 50.03716 | -4 ft | 12 kts | 338° |
| 2026-05-07 15:02 | 40.47514 | 50.03676 | -5 ft | 12 kts | 338° |
| 2026-05-07 15:02 | 40.47590 | 50.03654 | -6 ft | 11 kts | 5° |
| 2026-05-07 15:03 | 40.47658 | 50.03642 | -6 ft | 10 kts | 326° |
| 2026-05-07 15:03 | 40.47682 | 50.03565 | -7 ft | 9 kts | 271° |
| 2026-05-07 15:03 | 40.47686 | 50.03497 | -8 ft | 2 kts | 253° |
| 2026-05-07 15:03 | 40.47670 | 50.03487 | -7 ft | 3 kts | 184° |
| 2026-05-07 15:04 | 40.47658 | 50.03490 | -7 ft | 0 kts | 168° |
| 2026-05-07 15:04 | 40.47359 | 50.03578 | -3 ft | 99 kts | 167° |
| 2026-05-07 15:04 | 40.46370 | 50.03891 | 119 ft | 182 kts | 166° |
| 2026-05-07 15:04 | 40.45106 | 50.04301 | 1416 ft | 185 kts | 164° |
| 2026-05-07 15:05 | 40.43785 | 50.04723 | 2592 ft | 209 kts | 165° |
| 2026-05-07 15:05 | 40.42270 | 50.05190 | 3174 ft | 236 kts | 165° |
| 2026-05-07 15:05 | 40.40570 | 50.05724 | 3829 ft | 262 kts | 165° |
| 2026-05-07 15:05 | 40.38772 | 50.06299 | 5044 ft | 267 kts | 166° |
| 2026-05-07 15:06 | 40.37003 | 50.07093 | 6269 ft | 274 kts | 148° |
| 2026-05-07 15:06 | 40.35495 | 50.08650 | 7429 ft | 280 kts | 141° |
| 2026-05-07 15:06 | 40.33996 | 50.10324 | 7851 ft | 284 kts | 141° |
| 2026-05-07 15:06 | 40.32473 | 50.12009 | 7992 ft | 289 kts | 142° |
| 2026-05-07 15:07 | 40.30935 | 50.13697 | 7998 ft | 288 kts | 142° |
| 2026-05-07 15:07 | 40.29439 | 50.15426 | 7996 ft | 287 kts | 132° |
| 2026-05-07 15:07 | 40.28539 | 50.17746 | 8012 ft | 289 kts | 104° |
| 2026-05-07 15:07 | 40.28338 | 50.20358 | 8011 ft | 289 kts | 91° |
| 2026-05-07 15:08 | 40.28329 | 50.22990 | 8006 ft | 289 kts | 91° |
| 2026-05-07 15:08 | 40.28317 | 50.25628 | 8003 ft | 290 kts | 91° |
| 2026-05-07 15:08 | 40.28292 | 50.28273 | 8004 ft | 291 kts | 91° |
| 2026-05-07 15:08 | 40.28331 | 50.30926 | 8022 ft | 294 kts | 84° |
| 2026-05-07 15:09 | 40.28674 | 50.33595 | 8703 ft | 300 kts | 79° |
| 2026-05-07 15:09 | 40.29074 | 50.36278 | 9928 ft | 302 kts | 80° |
| 2026-05-07 15:09 | 40.29462 | 50.39025 | 10758 ft | 318 kts | 81° |
| 2026-05-07 15:09 | 40.29861 | 50.42020 | 11050 ft | 351 kts | 81° |
| 2026-05-07 15:10 | 40.30282 | 50.45268 | 11369 ft | 378 kts | 82° |
| 2026-05-07 15:10 | 40.30731 | 50.48766 | 12160 ft | 389 kts | 82° |
| 2026-05-07 15:10 | 40.31182 | 50.52292 | 13110 ft | 395 kts | 82° |
| 2026-05-07 15:10 | 40.31638 | 50.55867 | 14044 ft | 402 kts | 82° |
| 2026-05-07 15:11 | 40.32102 | 50.59515 | 14866 ft | 409 kts | 82° |
| 2026-05-07 15:11 | 40.32573 | 50.63224 | 15713 ft | 416 kts | 82° |
| 2026-05-07 15:11 | 40.33050 | 50.66990 | 16537 ft | 422 kts | 82° |
| 2026-05-07 15:11 | 40.33527 | 50.70767 | 17302 ft | 430 kts | 83° |
| 2026-05-07 15:12 | 40.34018 | 50.74664 | 18065 ft | 437 kts | 83° |
| 2026-05-07 15:12 | 40.34516 | 50.78624 | 18790 ft | 444 kts | 83° |
| 2026-05-07 15:12 | 40.35020 | 50.82641 | 19470 ft | 450 kts | 83° |
| 2026-05-07 15:12 | 40.35482 | 50.86727 | 20138 ft | 454 kts | 89° |
| 2026-05-07 15:13 | 40.35185 | 50.90818 | 20744 ft | 451 kts | 110° |
| 2026-05-07 15:13 | 40.34025 | 50.94592 | 21407 ft | 444 kts | 127° |
| 2026-05-07 15:13 | 40.32219 | 50.97825 | 22097 ft | 440 kts | 136° |
| 2026-05-07 15:13 | 40.30252 | 51.00922 | 22740 ft | 444 kts | 137° |
| 2026-05-07 15:14 | 40.28240 | 51.04026 | 23367 ft | 449 kts | 137° |
| 2026-05-07 15:14 | 40.26209 | 51.07169 | 23933 ft | 455 kts | 137° |
| 2026-05-07 15:14 | 40.24168 | 51.10358 | 24453 ft | 459 kts | 137° |
| 2026-05-07 15:14 | 40.22119 | 51.13592 | 24951 ft | 463 kts | 137° |
| 2026-05-07 15:15 | 40.20060 | 51.16861 | 25471 ft | 468 kts | 137° |
| 2026-05-07 15:15 | 40.17986 | 51.20161 | 25953 ft | 472 kts | 137° |
| 2026-05-07 15:15 | 40.15893 | 51.23490 | 26428 ft | 476 kts | 137° |
| 2026-05-07 15:15 | 40.13780 | 51.26847 | 26872 ft | 480 kts | 138° |
| 2026-05-07 15:16 | 40.11648 | 51.30229 | 27312 ft | 484 kts | 138° |
| 2026-05-07 15:16 | 40.09498 | 51.33636 | 27747 ft | 488 kts | 138° |
| 2026-05-07 15:16 | 40.07330 | 51.37068 | 28173 ft | 492 kts | 138° |
| 2026-05-07 15:16 | 40.05144 | 51.40523 | 28594 ft | 495 kts | 138° |
| 2026-05-07 15:17 | 40.02941 | 51.44000 | 28993 ft | 499 kts | 138° |
| 2026-05-07 15:17 | 40.00832 | 51.47646 | 29368 ft | 511 kts | 130° |
| 2026-05-07 15:17 | 39.99108 | 51.51760 | 29834 ft | 522 kts | 122° |
| 2026-05-07 15:17 | 39.97835 | 51.56232 | 30357 ft | 531 kts | 111° |
| 2026-05-07 15:18 | 39.96937 | 51.60901 | 30896 ft | 530 kts | 109° |
| 2026-05-07 15:18 | 39.96120 | 51.65528 | 31399 ft | 529 kts | 109° |
| 2026-05-07 15:18 | 39.95310 | 51.70199 | 31848 ft | 528 kts | 109° |
| 2026-05-07 15:18 | 39.94488 | 51.74863 | 32277 ft | 527 kts | 109° |
| 2026-05-07 15:19 | 39.93647 | 51.79511 | 32726 ft | 526 kts | 109° |
| 2026-05-07 15:19 | 39.92789 | 51.84136 | 33195 ft | 524 kts | 110° |
| 2026-05-07 15:19 | 39.91921 | 51.88740 | 33614 ft | 523 kts | 110° |
| 2026-05-07 15:19 | 39.91048 | 51.93327 | 34071 ft | 521 kts | 110° |
| 2026-05-07 15:20 | 39.90176 | 51.97889 | 34441 ft | 520 kts | 110° |
| 2026-05-07 15:20 | 39.89302 | 52.02453 | 34777 ft | 519 kts | 110° |
| 2026-05-07 15:20 | 39.88428 | 52.07015 | 35090 ft | 519 kts | 110° |
| 2026-05-07 15:20 | 39.87554 | 52.11571 | 35423 ft | 518 kts | 110° |
| 2026-05-07 15:21 | 39.86681 | 52.16118 | 35756 ft | 517 kts | 110° |
| 2026-05-07 15:21 | 39.85809 | 52.20655 | 36093 ft | 516 kts | 110° |
| 2026-05-07 15:21 | 39.84934 | 52.25195 | 36381 ft | 516 kts | 110° |
| 2026-05-07 15:21 | 39.84059 | 52.29721 | 36683 ft | 515 kts | 110° |
| 2026-05-07 15:22 | 39.83186 | 52.34231 | 36994 ft | 515 kts | 110° |
| 2026-05-07 15:22 | 39.82310 | 52.38744 | 37291 ft | 514 kts | 110° |
| 2026-05-07 15:22 | 39.81443 | 52.43205 | 37569 ft | 514 kts | 110° |
| 2026-05-07 15:22 | 39.80564 | 52.47712 | 37857 ft | 514 kts | 110° |
| 2026-05-07 15:23 | 39.79685 | 52.52213 | 38150 ft | 513 kts | 110° |
| 2026-05-07 15:23 | 39.78807 | 52.56697 | 38413 ft | 513 kts | 110° |
| 2026-05-07 15:23 | 39.77924 | 52.61197 | 38625 ft | 514 kts | 110° |
| 2026-05-07 15:23 | 39.77036 | 52.65703 | 38809 ft | 515 kts | 110° |
| 2026-05-07 15:24 | 39.76148 | 52.70214 | 39016 ft | 515 kts | 110° |
| 2026-05-07 15:24 | 39.75260 | 52.74714 | 39256 ft | 513 kts | 110° |
| 2026-05-07 15:24 | 39.74373 | 52.79203 | 39485 ft | 512 kts | 110° |
| 2026-05-07 15:24 | 39.73483 | 52.83686 | 39680 ft | 512 kts | 110° |
| 2026-05-07 15:25 | 39.72600 | 52.88172 | 39875 ft | 512 kts | 110° |
| 2026-05-07 15:25 | 39.71726 | 52.92654 | 40077 ft | 512 kts | 110° |
| 2026-05-07 15:25 | 39.70855 | 52.97136 | 40244 ft | 512 kts | 110° |
| 2026-05-07 15:25 | 39.69985 | 53.01612 | 40410 ft | 512 kts | 110° |
| 2026-05-07 15:26 | 39.69109 | 53.06106 | 40601 ft | 512 kts | 110° |
| 2026-05-07 15:26 | 39.68235 | 53.10572 | 40811 ft | 511 kts | 110° |
| 2026-05-07 15:26 | 39.67358 | 53.15041 | 40999 ft | 511 kts | 110° |
| 2026-05-07 15:26 | 39.66487 | 53.19465 | 41080 ft | 513 kts | 110° |
| 2026-05-07 15:27 | 39.64700 | 53.28497 | 41061 ft | 513 kts | 110° |
| 2026-05-07 15:27 | 39.63824 | 53.32918 | 41273 ft | 512 kts | 107° |
| 2026-05-07 15:27 | 39.62948 | 53.37335 | 41184 ft | 498 kts | 107° |
| 2026-05-07 15:28 | 39.62107 | 53.41586 | 41041 ft | 483 kts | 107° |
| 2026-05-07 15:28 | 39.61278 | 53.45748 | 40975 ft | 473 kts | 107° |
| 2026-05-07 15:28 | 39.59615 | 53.54032 | 40996 ft | 478 kts | 108° |
| 2026-05-07 15:29 | 39.57923 | 53.62424 | 41094 ft | 484 kts | 108° |
| 2026-05-07 15:29 | 39.56206 | 53.70928 | 41111 ft | 491 kts | 107° |
| 2026-05-07 15:30 | 39.54472 | 53.79498 | 41104 ft | 493 kts | 108° |
| 2026-05-07 15:30 | 39.52721 | 53.88108 | 41105 ft | 495 kts | 108° |
| 2026-05-07 15:31 | 39.50963 | 53.96723 | 41090 ft | 495 kts | 108° |
| 2026-05-07 15:31 | 39.49209 | 54.05267 | 41089 ft | 494 kts | 108° |
| 2026-05-07 15:32 | 39.47422 | 54.13833 | 41093 ft | 492 kts | 108° |
| 2026-05-07 15:32 | 39.45631 | 54.22370 | 41095 ft | 491 kts | 108° |
| 2026-05-07 15:33 | 39.44132 | 54.29499 | 41090 ft | 490 kts | 108° |
| 2026-05-07 15:33 | 39.42351 | 54.37941 | 41088 ft | 489 kts | 108° |
| 2026-05-07 15:34 | 39.40556 | 54.46424 | 41091 ft | 489 kts | 108° |
| 2026-05-07 15:34 | 39.38757 | 54.54896 | 41095 ft | 488 kts | 108° |
| 2026-05-07 15:35 | 39.36951 | 54.63361 | 41093 ft | 488 kts | 108° |
| 2026-05-07 15:35 | 39.35140 | 54.71820 | 41088 ft | 488 kts | 108° |
| 2026-05-07 15:36 | 39.33322 | 54.80276 | 41092 ft | 488 kts | 108° |
| 2026-05-07 15:36 | 39.31498 | 54.88728 | 41094 ft | 488 kts | 108° |
| 2026-05-07 15:37 | 39.29666 | 54.97187 | 41093 ft | 489 kts | 108° |
| 2026-05-07 15:37 | 39.27829 | 55.05636 | 41092 ft | 489 kts | 108° |
| 2026-05-07 15:38 | 39.25998 | 55.14024 | 41096 ft | 489 kts | 108° |
| 2026-05-07 15:38 | 39.24149 | 55.22462 | 41088 ft | 489 kts | 108° |
| 2026-05-07 15:39 | 39.22295 | 55.30894 | 41089 ft | 489 kts | 108° |
| 2026-05-07 15:39 | 39.20433 | 55.39325 | 41096 ft | 489 kts | 108° |
| 2026-05-07 15:40 | 39.18568 | 55.47744 | 41101 ft | 489 kts | 108° |
| 2026-05-07 15:40 | 39.16695 | 55.56171 | 41091 ft | 489 kts | 109° |
| 2026-05-07 15:41 | 39.14814 | 55.64591 | 41102 ft | 489 kts | 109° |
| 2026-05-07 15:41 | 39.12927 | 55.73007 | 41093 ft | 489 kts | 109° |
| 2026-05-07 15:42 | 39.11036 | 55.81417 | 41088 ft | 489 kts | 109° |
| 2026-05-07 15:42 | 39.09141 | 55.89811 | 41086 ft | 489 kts | 109° |
| 2026-05-07 15:43 | 39.07240 | 55.98208 | 41097 ft | 489 kts | 109° |
| 2026-05-07 15:43 | 39.05331 | 56.06603 | 41091 ft | 489 kts | 109° |
| 2026-05-07 15:44 | 39.03418 | 56.14989 | 41087 ft | 488 kts | 109° |
| 2026-05-07 15:44 | 39.01500 | 56.23369 | 41097 ft | 488 kts | 109° |
| 2026-05-07 15:45 | 38.99569 | 56.31727 | 41093 ft | 488 kts | 110° |
| 2026-05-07 15:45 | 38.97367 | 56.39960 | 41096 ft | 487 kts | 112° |
| 2026-05-07 15:46 | 38.93901 | 56.52221 | 41096 ft | 487 kts | 112° |
| 2026-05-07 15:47 | 38.91625 | 56.60409 | 41092 ft | 487 kts | 112° |
| 2026-05-07 15:47 | 38.89376 | 56.68550 | 41103 ft | 487 kts | 112° |
| 2026-05-07 15:48 | 38.87098 | 56.76785 | 41106 ft | 487 kts | 112° |
| 2026-05-07 15:48 | 38.84840 | 56.84914 | 41099 ft | 487 kts | 112° |
| 2026-05-07 15:49 | 38.82560 | 56.93091 | 41096 ft | 487 kts | 112° |
| 2026-05-07 15:49 | 38.80274 | 57.01262 | 41099 ft | 487 kts | 112° |
| 2026-05-07 15:50 | 38.77982 | 57.09427 | 41102 ft | 487 kts | 112° |
| 2026-05-07 15:50 | 38.75686 | 57.17585 | 41106 ft | 487 kts | 112° |
| 2026-05-07 15:51 | 38.73388 | 57.25726 | 41099 ft | 486 kts | 112° |
| 2026-05-07 15:51 | 38.71082 | 57.33868 | 41102 ft | 486 kts | 112° |
| 2026-05-07 15:52 | 38.68771 | 57.42004 | 41095 ft | 486 kts | 112° |
| 2026-05-07 15:52 | 38.66453 | 57.50138 | 41087 ft | 486 kts | 112° |
| 2026-05-07 15:53 | 38.64135 | 57.58252 | 41097 ft | 486 kts | 112° |
| 2026-05-07 15:53 | 38.61820 | 57.66315 | 41093 ft | 486 kts | 113° |
| 2026-05-07 15:54 | 38.59178 | 57.74242 | 41097 ft | 484 kts | 117° |
| 2026-05-07 15:54 | 38.56362 | 57.82056 | 41085 ft | 484 kts | 117° |
| 2026-05-07 15:55 | 38.53566 | 57.89880 | 41097 ft | 484 kts | 117° |
| 2026-05-07 15:55 | 38.50802 | 57.97711 | 41091 ft | 484 kts | 116° |
| 2026-05-07 15:56 | 38.48038 | 58.05549 | 41084 ft | 484 kts | 116° |
| 2026-05-07 15:56 | 38.45266 | 58.13380 | 41081 ft | 484 kts | 116° |
| 2026-05-07 15:57 | 38.42491 | 58.21200 | 41084 ft | 484 kts | 116° |
| 2026-05-07 15:57 | 38.39793 | 58.29059 | 41076 ft | 485 kts | 110° |
| 2026-05-07 15:58 | 38.38046 | 58.37370 | 41085 ft | 486 kts | 105° |
| 2026-05-07 15:58 | 38.36459 | 58.45755 | 41079 ft | 487 kts | 105° |
| 2026-05-07 15:59 | 38.34837 | 58.54131 | 41074 ft | 487 kts | 105° |
| 2026-05-07 15:59 | 38.33184 | 58.62437 | 41075 ft | 487 kts | 106° |
| 2026-05-07 16:00 | 38.31500 | 58.70790 | 41073 ft | 487 kts | 106° |
| 2026-05-07 16:00 | 38.29810 | 58.79142 | 41076 ft | 487 kts | 106° |
| 2026-05-07 16:01 | 38.28115 | 58.87498 | 41074 ft | 487 kts | 106° |
| 2026-05-07 16:01 | 38.26416 | 58.95842 | 41076 ft | 487 kts | 106° |
| 2026-05-07 16:02 | 38.24711 | 59.04182 | 41074 ft | 487 kts | 106° |
| 2026-05-07 16:02 | 38.23000 | 59.12520 | 41075 ft | 487 kts | 106° |
| 2026-05-07 16:03 | 38.21301 | 59.20771 | 41074 ft | 487 kts | 106° |
| 2026-05-07 16:03 | 38.19580 | 59.29088 | 41076 ft | 487 kts | 106° |
| 2026-05-07 16:04 | 38.17852 | 59.37416 | 41074 ft | 487 kts | 106° |
| 2026-05-07 16:04 | 38.16117 | 59.45739 | 41075 ft | 487 kts | 106° |
| 2026-05-07 16:05 | 38.14376 | 59.54059 | 41076 ft | 487 kts | 106° |
| 2026-05-07 16:05 | 38.12630 | 59.62377 | 41069 ft | 487 kts | 106° |
| 2026-05-07 16:06 | 38.10876 | 59.70694 | 41042 ft | 488 kts | 106° |
| 2026-05-07 16:06 | 38.09115 | 59.79015 | 41043 ft | 488 kts | 106° |
| 2026-05-07 16:07 | 38.07349 | 59.87331 | 41028 ft | 488 kts | 106° |
| 2026-05-07 16:07 | 38.05579 | 59.95633 | 41026 ft | 488 kts | 106° |
| 2026-05-07 16:08 | 38.03799 | 60.03948 | 41018 ft | 488 kts | 106° |
| 2026-05-07 16:08 | 38.02020 | 60.12237 | 41007 ft | 488 kts | 107° |
| 2026-05-07 16:09 | 38.00242 | 60.20476 | 41010 ft | 487 kts | 107° |
| 2026-05-07 16:09 | 37.98437 | 60.28764 | 40982 ft | 488 kts | 107° |
| 2026-05-07 16:10 | 37.96626 | 60.37045 | 40996 ft | 487 kts | 107° |
| 2026-05-07 16:10 | 37.94810 | 60.45320 | 41000 ft | 487 kts | 107° |
| 2026-05-07 16:11 | 37.92990 | 60.53593 | 40994 ft | 488 kts | 107° |
| 2026-05-07 16:11 | 37.91165 | 60.61859 | 40987 ft | 488 kts | 107° |
| 2026-05-07 16:12 | 37.89331 | 60.70132 | 40982 ft | 488 kts | 107° |
| 2026-05-07 16:12 | 37.87491 | 60.78403 | 40979 ft | 488 kts | 107° |
| 2026-05-07 16:13 | 37.85645 | 60.86674 | 40970 ft | 488 kts | 107° |
| 2026-05-07 16:13 | 37.83793 | 60.94940 | 40973 ft | 488 kts | 107° |
| 2026-05-07 16:14 | 37.81934 | 61.03204 | 40967 ft | 489 kts | 107° |
| 2026-05-07 16:14 | 37.80069 | 61.11469 | 40964 ft | 489 kts | 107° |
| 2026-05-07 16:15 | 37.78198 | 61.19730 | 40956 ft | 489 kts | 107° |
| 2026-05-07 16:15 | 37.76333 | 61.27936 | 40955 ft | 489 kts | 107° |
| 2026-05-07 16:16 | 37.74450 | 61.36190 | 40954 ft | 489 kts | 107° |
| 2026-05-07 16:16 | 37.72561 | 61.44440 | 40942 ft | 489 kts | 107° |
| 2026-05-07 16:17 | 37.70669 | 61.52678 | 40946 ft | 489 kts | 107° |
| 2026-05-07 16:17 | 37.68766 | 61.60929 | 40944 ft | 489 kts | 107° |
| 2026-05-07 16:18 | 37.66860 | 61.69167 | 40944 ft | 489 kts | 107° |
| 2026-05-07 16:18 | 37.64946 | 61.77401 | 40945 ft | 489 kts | 107° |
| 2026-05-07 16:19 | 37.63029 | 61.85630 | 40943 ft | 489 kts | 107° |
| 2026-05-07 16:19 | 37.61453 | 61.92471 | 40935 ft | 489 kts | 107° |
| 2026-05-07 16:20 | 37.59666 | 62.00748 | 40936 ft | 489 kts | 106° |
| 2026-05-07 16:20 | 37.57907 | 62.09027 | 40935 ft | 489 kts | 106° |
| 2026-05-07 16:21 | 37.56131 | 62.17304 | 40940 ft | 489 kts | 106° |
| 2026-05-07 16:21 | 37.54338 | 62.25569 | 40945 ft | 489 kts | 106° |
| 2026-05-07 16:22 | 37.52537 | 62.33829 | 40944 ft | 489 kts | 106° |
| 2026-05-07 16:22 | 37.50726 | 62.42095 | 40945 ft | 489 kts | 106° |
| 2026-05-07 16:23 | 37.48913 | 62.50350 | 40942 ft | 489 kts | 106° |
| 2026-05-07 16:23 | 37.47105 | 62.58548 | 40934 ft | 489 kts | 106° |
| 2026-05-07 16:24 | 37.45270 | 62.66841 | 40936 ft | 489 kts | 106° |
| 2026-05-07 16:24 | 37.43452 | 62.75027 | 40935 ft | 489 kts | 106° |
| 2026-05-07 16:25 | 37.41617 | 62.83262 | 40935 ft | 489 kts | 106° |
| 2026-05-07 16:25 | 37.39776 | 62.91488 | 40936 ft | 488 kts | 106° |
| 2026-05-07 16:26 | 37.37931 | 62.99708 | 40935 ft | 488 kts | 106° |
| 2026-05-07 16:26 | 37.36083 | 63.07910 | 40936 ft | 488 kts | 106° |
| 2026-05-07 16:27 | 37.34228 | 63.16115 | 40935 ft | 488 kts | 106° |
| 2026-05-07 16:27 | 37.32367 | 63.24312 | 40936 ft | 488 kts | 106° |
| 2026-05-07 16:28 | 37.30502 | 63.32503 | 40936 ft | 488 kts | 106° |
| 2026-05-07 16:28 | 37.28631 | 63.40688 | 40934 ft | 487 kts | 106° |
| 2026-05-07 16:29 | 37.26755 | 63.48868 | 40936 ft | 487 kts | 107° |
| 2026-05-07 16:29 | 37.24874 | 63.57041 | 40937 ft | 487 kts | 107° |
| 2026-05-07 16:30 | 37.22988 | 63.65208 | 40935 ft | 487 kts | 107° |
| 2026-05-07 16:30 | 37.21097 | 63.73368 | 40944 ft | 487 kts | 107° |
| 2026-05-07 16:31 | 37.19201 | 63.81523 | 40925 ft | 487 kts | 107° |
| 2026-05-07 16:31 | 37.17297 | 63.89679 | 40919 ft | 487 kts | 107° |
| 2026-05-07 16:32 | 37.15401 | 63.97775 | 40916 ft | 487 kts | 107° |
| 2026-05-07 16:32 | 37.13477 | 64.05965 | 40918 ft | 487 kts | 107° |
| 2026-05-07 16:33 | 37.11559 | 64.14101 | 40916 ft | 487 kts | 107° |
| 2026-05-07 16:33 | 37.09649 | 64.22177 | 40915 ft | 487 kts | 107° |
| 2026-05-07 16:34 | 37.07720 | 64.30304 | 40918 ft | 487 kts | 107° |
| 2026-05-07 16:34 | 37.05785 | 64.38428 | 40915 ft | 487 kts | 107° |
| 2026-05-07 16:35 | 37.03844 | 64.46549 | 40918 ft | 487 kts | 107° |
| 2026-05-07 16:35 | 37.01886 | 64.54716 | 40917 ft | 487 kts | 107° |
| 2026-05-07 16:36 | 36.99947 | 64.62777 | 40916 ft | 487 kts | 107° |
| 2026-05-07 16:36 | 36.97992 | 64.70884 | 40917 ft | 487 kts | 107° |
| 2026-05-07 16:37 | 36.95840 | 64.78907 | 40906 ft | 486 kts | 115° |
| 2026-05-07 16:37 | 36.92362 | 64.86121 | 40921 ft | 485 kts | 125° |
| 2026-05-07 16:38 | 36.88570 | 64.93102 | 40917 ft | 485 kts | 125° |
| 2026-05-07 16:38 | 36.84803 | 65.00085 | 40916 ft | 485 kts | 125° |
| 2026-05-07 16:39 | 36.81063 | 65.07106 | 40917 ft | 486 kts | 124° |
| 2026-05-07 16:39 | 36.77331 | 65.14135 | 40917 ft | 486 kts | 124° |
| 2026-05-07 16:40 | 36.73593 | 65.21161 | 40918 ft | 486 kts | 124° |